Time;durP1;ratioP1;P1;durP2;ratioP2;P2;SDS_P1;SDS_P2;PMS_P1;PMS_P2;Temp;Humidity;BMP_temperature;BMP_pressure;BME280_temperature;BME280_humidity;BME280_pressure;Samples;Min_cycle;Max_cycle;Signal;HPM_P1;HPM_P2
2022/12/26 00:01:51;;;;;;;;;23.00;20.80;;;;;15.93;45.18;100033.13;4956033;28;8888;-79
2022/12/26 00:04:21;;;;;;;;;22.80;21.80;;;;;16.04;45.03;100025.09;5002903;28;8954;-83
2022/12/26 00:07:09;;;;;;;;;24.60;24.60;;;;;16.16;44.71;100021.41;4986600;28;8873;-78
2022/12/26 00:09:38;;;;;;;;;26.00;24.80;;;;;16.29;44.96;100015.03;4994378;28;8848;-77
2022/12/26 00:12:07;;;;;;;;;22.20;21.20;;;;;16.35;44.41;100020.22;4995060;28;8883;-78
2022/12/26 00:14:37;;;;;;;;;17.80;17.60;;;;;16.31;44.64;100026.44;5027442;28;8900;-80
2022/12/26 00:17:05;;;;;;;;;24.00;22.60;;;;;16.31;44.97;100020.28;5009098;28;8899;-78
2022/12/26 00:19:34;;;;;;;;;22.80;22.80;;;;;16.31;44.54;100015.03;5023220;28;8875;-81
2022/12/26 00:22:02;;;;;;;;;23.80;23.20;;;;;16.39;45.00;100007.88;4959176;28;9003;-79
2022/12/26 00:24:31;;;;;;;;;22.40;19.20;;;;;16.39;44.41;100007.88;5009856;28;8858;-78
2022/12/26 00:27:00;;;;;;;;;20.00;19.40;;;;;16.30;44.59;100014.16;5012967;28;8990;-78
2022/12/26 00:29:29;;;;;;;;;25.40;25.00;;;;;16.23;44.82;100011.66;4984023;28;8946;-76
2022/12/26 00:31:59;;;;;;;;;27.00;25.80;;;;;15.61;45.94;100020.41;4991351;28;8850;-79
2022/12/26 00:34:28;;;;;;;;;18.60;17.20;;;;;15.65;45.66;100027.41;5015717;28;8843;-78
2022/12/26 00:36:56;;;;;;;;;21.40;20.40;;;;;15.73;45.16;100022.03;5016367;28;8864;-78
2022/12/26 00:39:26;;;;;;;;;25.40;22.20;;;;;15.88;44.88;100018.31;5021107;28;9685;-77
2022/12/26 00:41:55;;;;;;;;;27.80;26.20;;;;;15.92;45.03;100020.91;4978399;28;8848;-79
2022/12/26 00:44:24;;;;;;;;;22.80;20.60;;;;;15.85;44.79;100023.63;4997409;28;8877;-78
2022/12/26 00:46:54;;;;;;;;;28.60;26.00;;;;;15.31;46.42;100040.97;5052919;28;9617;-78
2022/12/26 00:49:24;;;;;;;;;42.75;37.25;;;;;14.08;50.20;100046.44;5010361;28;8863;-77
2022/12/26 00:51:52;;;;;;;;;33.75;32.00;;;;;13.56;51.75;100052.84;5020256;28;8975;-79
2022/12/26 00:54:21;;;;;;;;;43.25;39.00;;;;;12.73;54.81;100060.91;4999222;28;9723;-79
2022/12/26 00:56:50;;;;;;;;;49.00;40.50;;;;;12.31;56.31;100058.31;4974902;28;8912;-78
2022/12/26 00:59:19;;;;;;;;;35.25;34.25;;;;;12.41;56.00;100057.41;5038186;28;8897;-77
2022/12/26 01:01:48;;;;;;;;;50.00;42.00;;;;;12.29;56.33;100047.84;5026038;28;8999;-79
2022/12/26 01:04:17;;;;;;;;;10.50;8.75;;;;;12.46;56.26;100040.00;4996418;28;8852;-78
2022/12/26 01:06:46;;;;;;;;;45.25;39.25;;;;;13.01;53.83;100048.66;5054229;28;8961;-79
2022/12/26 01:09:15;;;;;;;;;43.25;38.00;;;;;13.34;52.92;100036.34;4984320;28;8874;-82
2022/12/26 01:11:44;;;;;;;;;45.00;38.75;;;;;13.60;52.09;100039.72;5027739;28;8859;-78
2022/12/26 01:14:14;;;;;;;;;46.00;39.00;;;;;13.88;51.00;100046.59;5029207;28;8872;-80
2022/12/26 01:16:45;;;;;;;;;41.25;35.75;;;;;14.09;50.69;100043.81;5018070;28;8924;-82
2022/12/26 01:19:14;;;;;;;;;47.00;39.75;;;;;14.26;49.92;100046.31;5013213;28;8867;-80
2022/12/26 01:21:47;;;;;;;;;55.75;47.25;;;;;14.39;50.12;100045.34;5042718;28;8863;-80
2022/12/26 01:24:16;;;;;;;;;56.00;48.00;;;;;14.56;49.70;100039.09;5059621;28;8852;-79
2022/12/26 01:26:45;;;;;;;;;53.75;42.75;;;;;14.66;49.64;100038.13;5045134;28;9705;-79
2022/12/26 01:29:13;;;;;;;;;56.00;47.25;;;;;14.76;48.95;100045.06;4988552;28;9603;-80
2022/12/26 01:31:42;;;;;;;;;54.50;45.00;;;;;14.87;49.15;100050.19;5005485;28;8925;-79
2022/12/26 01:34:11;;;;;;;;;45.00;38.75;;;;;14.95;49.04;100050.09;4972716;28;8874;-82
2022/12/26 01:36:39;;;;;;;;;57.75;46.50;;;;;15.03;48.82;100056.16;4980487;28;8881;-81
2022/12/26 01:39:10;;;;;;;;;49.50;41.25;;;;;15.06;48.44;100052.63;4981191;28;8900;-78
2022/12/26 01:41:39;;;;;;;;;56.00;46.75;;;;;15.05;48.61;100056.13;4980452;28;8861;-79
2022/12/26 01:44:46;;;;;;;;;52.50;43.25;;;;;15.29;48.26;100044.47;4996978;28;8858;-78
2022/12/26 01:47:14;;;;;;;;;47.75;40.50;;;;;15.24;48.33;100043.69;4980287;28;8914;-79
2022/12/26 01:49:46;;;;;;;;;43.25;39.75;;;;;15.26;48.21;100044.53;4996027;28;8858;-80
2022/12/26 01:52:21;;;;;;;;;49.50;42.50;;;;;15.17;48.23;100041.09;4989955;28;8862;-78
2022/12/26 01:54:54;;;;;;;;;46.25;40.75;;;;;15.00;48.64;100033.41;4988654;28;8901;-80
2022/12/26 01:57:28;;;;;;;;;40.25;37.50;;;;;14.77;48.97;100046.78;4987423;28;8868;-79
2022/12/26 01:59:58;;;;;;;;;53.50;44.00;;;;;13.89;52.17;100054.41;4997441;28;8867;-81
2022/12/26 02:02:29;;;;;;;;;54.00;45.00;;;;;13.23;54.38;100050.34;5022382;28;8874;-79
2022/12/26 02:07:46;;;;;;;;;48.50;38.50;;;;;13.97;52.02;100044.78;5039904;28;8874;-80
2022/12/26 02:10:22;;;;;;;;;53.50;43.00;;;;;14.36;51.31;100040.09;5006233;28;8866;-79
2022/12/26 02:12:50;;;;;;;;;55.50;44.25;;;;;14.58;50.66;100042.59;5007917;28;8986;-79
2022/12/26 02:15:19;;;;;;;;;52.75;43.50;;;;;14.49;50.40;100046.13;5007298;28;8842;-79
2022/12/26 02:17:47;;;;;;;;;48.75;41.50;;;;;14.41;50.78;100056.69;5007949;28;8878;-81
2022/12/26 02:20:20;;;;;;;;;54.75;43.00;;;;;13.73;53.04;100064.13;5009225;28;8866;-79
2022/12/26 02:23:36;;;;;;;;;57.75;48.75;;;;;14.08;52.20;100056.94;5040544;28;9582;-81
2022/12/26 02:26:43;;;;;;;;;56.50;45.50;;;;;14.61;51.04;100048.69;4968904;28;8854;-80
2022/12/26 02:29:47;;;;;;;;;53.50;45.25;;;;;14.92;50.31;100047.53;4968924;28;8892;-80
2022/12/26 02:32:26;;;;;;;;;55.00;47.00;;;;;15.05;50.08;100046.50;4890983;29;8981;-80
2022/12/26 02:35:05;;;;;;;;;54.00;44.50;;;;;15.21;49.52;100045.44;4875866;29;8919;-82
2022/12/26 02:37:51;;;;;;;;;43.00;38.50;;;;;15.40;48.63;100042.59;4909039;29;8991;-81
2022/12/26 02:40:37;;;;;;;;;45.00;38.25;;;;;15.42;47.82;100040.81;4912290;29;8873;-77
2022/12/26 02:43:16;;;;;;;;;34.25;32.00;;;;;14.80;48.56;100033.63;4913178;29;8932;-79
2022/12/26 02:48:55;;;;;;;;;40.00;35.00;;;;;15.24;47.86;100030.53;4868340;29;8875;-82
2022/12/26 03:14:29;;;;;;;;;25.40;23.40;;;;;15.50;46.46;100025.84;4992541;28;9013;-80
2022/12/26 03:17:18;;;;;;;;;38.80;33.00;;;;;15.77;46.33;100026.38;4993212;28;8889;-80
2022/12/26 03:20:00;;;;;;;;;33.20;31.60;;;;;15.96;45.91;100029.59;4988352;28;8995;-80
2022/12/26 03:22:37;;;;;;;;;19.40;18.80;;;;;15.89;45.14;100026.19;4989451;28;8852;-83
2022/12/26 03:27:56;;;;;;;;;19.80;19.40;;;;;15.93;44.93;100021.75;4989309;28;8873;-80
2022/12/26 03:35:53;;;;;;;;;21.00;20.00;;;;;15.65;45.31;100026.50;5029143;28;8900;-81
2022/12/26 03:38:33;;;;;;;;;16.40;15.60;;;;;15.96;44.57;100019.94;4995759;28;8862;-83
2022/12/26 04:19:24;;;;;;;;;18.40;18.40;;;;;16.21;44.00;100031.88;4929930;29;8872;-81
2022/12/26 04:44:46;;;;;;;;;32.40;28.80;;;;;16.66;43.80;100051.28;5029640;28;8926;-81
2022/12/26 04:47:17;;;;;;;;;39.50;34.50;;;;;16.81;43.87;100050.16;5028206;28;8852;-79
2022/12/26 04:55:14;;;;;;;;;34.00;32.75;;;;;16.36;44.55;100060.56;5007963;28;8854;-80
2022/12/26 04:57:43;;;;;;;;;40.75;35.00;;;;;15.88;45.33;100056.03;4958935;28;8916;-79
2022/12/26 05:00:13;;;;;;;;;22.80;22.80;;;;;15.94;45.11;100060.34;5006762;28;8948;-78
2022/12/26 05:11:25;;;;;;;;;35.80;32.60;;;;;16.30;44.50;100056.28;5009808;28;8851;-79
2022/12/26 05:13:55;;;;;;;;;30.00;27.80;;;;;16.15;44.77;100069.66;4977596;28;8882;-79
2022/12/26 05:30:29;;;;;;;;;36.00;33.25;;;;;17.08;43.23;100072.50;4935051;28;10000;-83
2022/12/26 05:35:45;;;;;;;;;51.00;43.25;;;;;17.20;43.34;100079.34;4916511;28;8849;-79
2022/12/26 05:38:14;;;;;;;;;46.50;38.00;;;;;17.24;43.09;100078.38;4948038;28;9603;-79
2022/12/26 05:40:43;;;;;;;;;53.75;44.75;;;;;17.25;43.30;100072.19;4931075;28;8876;-82
2022/12/26 05:43:11;;;;;;;;;53.25;44.50;;;;;17.24;43.31;100072.22;4916754;28;8906;-82
2022/12/26 05:45:40;;;;;;;;;62.75;51.75;;;;;17.27;43.22;100074.81;4931763;28;8855;-80
2022/12/26 05:48:08;;;;;;;;;48.50;42.00;;;;;17.09;43.23;100082.16;4911833;29;8862;-82
2022/12/26 05:50:37;;;;;;;;;45.00;38.33;;;;;17.01;43.54;100081.41;4913151;29;8874;-80
2022/12/26 05:53:07;;;;;;;;;43.50;39.00;;;;;16.79;43.60;100074.78;4929471;29;8846;-81
2022/12/26 05:55:36;;;;;;;;;39.50;35.75;;;;;16.66;43.75;100076.75;4927716;28;8871;-79
2022/12/26 05:58:04;;;;;;;;;38.00;36.00;;;;;16.86;43.92;100079.06;4916297;28;8852;-81
2022/12/26 06:00:33;;;;;;;;;43.25;37.25;;;;;16.94;43.09;100075.41;4931211;28;8858;-78
2022/12/26 06:03:01;;;;;;;;;37.50;34.75;;;;;16.76;43.21;100076.56;4983070;28;9669;-80
2022/12/26 06:05:30;;;;;;;;;31.40;30.40;;;;;16.82;43.14;100072.97;5005524;28;9714;-79
2022/12/26 06:07:59;;;;;;;;;25.80;22.20;;;;;16.82;43.35;100080.88;4972939;28;8855;-80
2022/12/26 06:10:29;;;;;;;;;29.40;26.40;;;;;16.84;43.12;100078.22;4973272;28;8881;-80
2022/12/26 06:13:00;;;;;;;;;31.20;25.00;;;;;16.91;42.93;100079.88;5018981;28;8858;-79
2022/12/26 06:15:29;;;;;;;;;31.60;30.40;;;;;16.87;43.04;100076.41;4950626;28;8845;-80
2022/12/26 06:17:57;;;;;;;;;27.00;26.20;;;;;16.79;42.93;100082.69;4960196;28;8871;-77
2022/12/26 06:20:26;;;;;;;;;28.80;25.60;;;;;16.65;43.44;100088.19;4931023;28;8884;-77
2022/12/26 06:22:55;;;;;;;;;28.60;28.00;;;;;16.82;43.01;100082.63;4947269;28;8848;-76
2022/12/26 06:25:23;;;;;;;;;28.80;28.00;;;;;16.96;42.94;100085.94;4923628;28;9636;-79
2022/12/26 06:27:53;;;;;;;;;35.40;33.20;;;;;17.08;43.24;100080.41;4947317;28;8875;-79
2022/12/26 06:30:22;;;;;;;;;39.50;33.25;;;;;17.13;42.71;100078.56;4923188;28;8865;-80
2022/12/26 06:32:51;;;;;;;;;41.50;35.75;;;;;17.23;42.48;100088.94;4964884;28;9615;-79
2022/12/26 06:35:20;;;;;;;;;44.00;39.50;;;;;17.23;42.40;100095.06;4974783;28;8867;-80
2022/12/26 06:37:48;;;;;;;;;44.50;36.00;;;;;17.20;42.29;100081.09;4937974;28;8879;-76
2022/12/26 06:40:17;;;;;;;;;44.00;37.75;;;;;16.93;42.71;100083.34;4970977;28;8895;-80
2022/12/26 06:42:46;;;;;;;;;39.50;35.75;;;;;17.08;43.03;100090.09;4941431;28;8899;-80
2022/12/26 06:45:16;;;;;;;;;52.75;42.25;;;;;16.69;43.74;100088.13;4953389;28;8852;-79
2022/12/26 06:47:45;;;;;;;;;51.75;39.75;;;;;16.79;43.25;100088.81;5005838;28;9134;-77
2022/12/26 06:50:14;;;;;;;;;46.75;39.25;;;;;17.05;43.17;100100.69;4966947;28;8867;-82
2022/12/26 06:52:43;;;;;;;;;40.75;36.50;;;;;17.10;43.10;100093.56;5014647;28;8838;-81
2022/12/26 06:55:12;;;;;;;;;50.50;40.25;;;;;17.22;43.26;100098.63;5022270;28;8877;-80
2022/12/26 06:57:40;;;;;;;;;45.75;38.50;;;;;17.30;43.01;100094.06;5022911;28;8882;-81
2022/12/26 07:00:11;;;;;;;;;47.00;40.00;;;;;17.34;42.98;100101.00;5019874;28;8881;-78
2022/12/26 07:02:41;;;;;;;;;50.50;43.00;;;;;17.30;42.66;100103.75;5005488;28;8874;-79
2022/12/26 07:05:10;;;;;;;;;49.50;42.00;;;;;17.38;42.42;100096.56;5022617;28;8874;-80
2022/12/26 07:07:39;;;;;;;;;46.00;39.00;;;;;17.24;42.52;100099.47;5020289;28;8850;-77
2022/12/26 07:10:08;;;;;;;;;50.50;40.25;;;;;17.25;42.31;100106.47;5007416;28;8881;-81
2022/12/26 07:12:36;;;;;;;;;47.50;39.00;;;;;16.79;43.08;100116.94;5012643;28;8993;-80
2022/12/26 07:15:08;;;;;;;;;40.50;36.50;;;;;17.08;43.08;100109.41;5022054;28;8856;-80
2022/12/26 07:17:37;;;;;;;;;47.00;38.00;;;;;17.14;42.85;100119.84;5058975;28;8885;-79
2022/12/26 07:20:09;;;;;;;;;44.00;38.75;;;;;17.28;42.88;100126.63;5042438;28;8914;-80
2022/12/26 07:22:38;;;;;;;;;48.75;39.75;;;;;17.41;42.41;100128.13;5026102;28;8844;-81
2022/12/26 07:25:07;;;;;;;;;40.25;35.50;;;;;17.50;42.35;100121.81;4992955;28;8906;-82
2022/12/26 07:27:36;;;;;;;;;46.25;38.25;;;;;17.62;42.00;100120.72;4978190;28;8878;-82
2022/12/26 07:30:05;;;;;;;;;45.00;38.25;;;;;17.61;42.03;100122.47;5026816;28;8850;-78
2022/12/26 07:32:34;;;;;;;;;40.75;37.25;;;;;17.73;41.52;100126.59;4995495;28;8867;-76
2022/12/26 07:35:03;;;;;;;;;43.75;37.25;;;;;17.77;41.42;100125.66;5011913;28;8882;-79
2022/12/26 07:37:33;;;;;;;;;42.00;36.50;;;;;17.75;41.42;100122.19;5028281;28;8909;-79
2022/12/26 07:40:02;;;;;;;;;43.25;37.00;;;;;17.70;41.67;100132.81;5029478;28;8854;-79
2022/12/26 07:42:30;;;;;;;;;49.50;40.00;;;;;17.74;41.32;100128.34;5030163;28;8858;-77
2022/12/26 07:44:59;;;;;;;;;48.00;39.50;;;;;17.83;41.64;100127.31;5030645;28;8927;-79
2022/12/26 07:47:28;;;;;;;;;44.50;38.50;;;;;17.84;41.30;100129.03;5030536;28;8866;-79
2022/12/26 07:49:57;;;;;;;;;54.00;42.75;;;;;17.52;41.93;100131.44;5046806;28;8864;-78
2022/12/26 07:52:25;;;;;;;;;52.25;43.25;;;;;17.57;41.88;100131.34;5030510;28;8870;-78
2022/12/26 07:54:55;;;;;;;;;54.50;44.50;;;;;17.68;41.74;100137.25;5047177;28;8965;-79
2022/12/26 07:57:25;;;;;;;;;50.50;40.25;;;;;17.64;41.78;100140.88;5043022;28;8877;-80
2022/12/26 08:00:14;;;;;;;;;52.75;41.00;;;;;17.77;41.56;100141.50;5029075;28;8964;-80
2022/12/26 08:02:43;;;;;;;;;46.50;39.75;;;;;17.70;41.47;100137.25;5013886;28;8854;-79
2022/12/26 08:05:12;;;;;;;;;48.50;41.00;;;;;17.69;41.88;100136.38;5029719;28;8849;-79
2022/12/26 08:07:40;;;;;;;;;47.50;40.25;;;;;17.57;41.97;100130.47;4993250;28;8874;-80
2022/12/26 08:10:10;;;;;;;;;48.50;40.00;;;;;17.56;41.70;100136.63;5029574;28;8951;-80
2022/12/26 08:12:39;;;;;;;;;52.50;41.25;;;;;17.30;42.44;100135.38;5013229;28;8997;-81
2022/12/26 08:15:09;;;;;;;;;36.40;33.80;;;;;17.49;42.25;100136.75;4991814;28;8897;-78
2022/12/26 08:17:38;;;;;;;;;45.75;37.25;;;;;17.14;42.69;100134.78;5010535;28;9732;-78
2022/12/26 08:20:08;;;;;;;;;41.40;34.00;;;;;17.25;42.87;100135.44;5011465;28;9637;-80
2022/12/26 08:22:36;;;;;;;;;34.00;31.40;;;;;17.40;42.52;100139.56;5025154;28;8879;-80
2022/12/26 08:25:06;;;;;;;;;29.25;27.00;;;;;17.10;43.38;100136.59;5024893;28;8916;-80
2022/12/26 08:27:36;;;;;;;;;36.40;31.40;;;;;17.37;42.80;100133.47;5024308;28;8854;-79
2022/12/26 08:30:06;;;;;;;;;37.75;34.75;;;;;17.17;42.69;100136.50;5009094;28;8850;-79
2022/12/26 08:32:35;;;;;;;;;41.00;33.00;;;;;17.47;42.37;100143.84;5008243;28;8878;-82
2022/12/26 08:35:10;;;;;;;;;40.75;35.75;;;;;17.41;42.62;100143.97;5009797;28;8852;-79
2022/12/26 08:37:38;;;;;;;;;37.25;33.75;;;;;17.60;42.25;100135.66;5024324;28;8866;-81
2022/12/26 08:40:08;;;;;;;;;43.75;35.50;;;;;17.72;42.29;100148.63;5020597;28;9111;-78
2022/12/26 08:42:38;;;;;;;;;42.75;37.00;;;;;17.50;42.58;100151.69;5046300;28;8874;-80
2022/12/26 08:45:27;;;;;;;;;39.50;35.50;;;;;17.72;42.09;100149.47;5018908;28;8916;-79
2022/12/26 08:47:56;;;;;;;;;39.50;35.25;;;;;18.02;41.82;100149.78;5029782;28;8972;-81
2022/12/26 08:50:25;;;;;;;;;33.60;31.00;;;;;18.08;41.30;100148.78;5023127;28;8874;-81
2022/12/26 08:52:54;;;;;;;;;28.20;26.40;;;;;18.20;41.19;100150.28;5009265;28;9693;-79
2022/12/26 08:55:23;;;;;;;;;30.80;29.20;;;;;18.19;41.10;100148.56;5041460;28;8857;-79
2022/12/26 08:57:53;;;;;;;;;32.60;27.80;;;;;18.05;41.48;100147.09;5012733;28;8977;-81
2022/12/26 09:00:25;;;;;;;;;30.20;26.00;;;;;18.22;41.25;100145.84;5010222;28;8862;-80
2022/12/26 09:02:53;;;;;;;;;31.20;29.00;;;;;18.39;41.08;100145.47;5013803;28;8955;-80
2022/12/26 09:05:22;;;;;;;;;35.00;32.40;;;;;18.58;40.71;100151.19;5028894;28;8847;-79
2022/12/26 09:07:51;;;;;;;;;29.40;24.00;;;;;18.70;40.62;100148.25;5044599;28;8870;-80
2022/12/26 09:10:19;;;;;;;;;26.80;26.40;;;;;18.81;40.48;100146.25;5026993;28;8944;-80
2022/12/26 09:12:48;;;;;;;;;31.60;31.40;;;;;18.89;40.14;100146.06;5027923;28;8874;-80
2022/12/26 09:15:18;;;;;;;;;36.40;31.00;;;;;19.07;40.02;100131.50;5027531;28;8921;-79
2022/12/26 09:17:47;;;;;;;;;29.00;28.00;;;;;19.06;39.44;100130.63;5027466;28;8965;-79
2022/12/26 09:20:16;;;;;;;;;23.40;23.40;;;;;19.03;40.01;100135.13;5044366;28;9604;-79
2022/12/26 09:22:50;;;;;;;;;25.80;25.80;;;;;18.89;39.89;100125.78;5043786;28;8958;-81
2022/12/26 09:25:23;;;;;;;;;27.80;27.60;;;;;19.17;39.53;100122.44;5027490;28;8873;-78
2022/12/26 09:27:53;;;;;;;;;26.40;25.20;;;;;19.03;39.83;100117.47;5010698;28;9621;-78
2022/12/26 09:30:28;;;;;;;;;23.20;17.20;;;;;19.15;39.57;100116.31;4994662;28;8875;-78
2022/12/26 09:32:57;;;;;;;;;27.00;23.20;;;;;19.28;39.60;100114.19;5014715;28;8883;-81
2022/12/26 09:35:26;;;;;;;;;22.80;20.80;;;;;19.36;39.61;100112.22;4990270;28;8984;-81
2022/12/26 09:37:55;;;;;;;;;28.60;25.40;;;;;19.32;39.22;100112.31;4990146;28;9620;-81
2022/12/26 09:40:30;;;;;;;;;25.40;25.20;;;;;19.46;39.52;100111.03;4947870;28;8860;-81
2022/12/26 09:43:09;;;;;;;;;22.60;22.60;;;;;19.54;39.32;100102.88;4937842;28;8945;-81
2022/12/26 09:45:51;;;;;;;;;31.40;29.80;;;;;19.47;39.52;100106.63;4981400;28;8988;-81
2022/12/26 09:48:26;;;;;;;;;31.00;29.00;;;;;19.62;39.61;100110.59;4979720;28;8882;-80
2022/12/26 09:50:57;;;;;;;;;29.60;27.00;;;;;19.68;39.22;100102.50;4983303;28;8900;-80
2022/12/26 09:53:32;;;;;;;;;26.60;26.20;;;;;19.82;39.41;100107.41;4976200;28;8886;-80
2022/12/26 09:56:05;;;;;;;;;30.00;26.40;;;;;19.95;38.99;100103.50;4972975;28;8878;-77
2022/12/26 09:58:45;;;;;;;;;33.60;29.00;;;;;19.96;38.76;100092.00;5005336;28;8988;-79
2022/12/26 10:01:18;;;;;;;;;22.60;22.00;;;;;20.07;38.68;100089.00;4986868;28;8846;-80
2022/12/26 10:03:49;;;;;;;;;24.40;23.80;;;;;19.85;38.88;100087.03;4969983;28;8864;-81
2022/12/26 10:06:20;;;;;;;;;30.40;26.20;;;;;19.92;39.23;100079.75;4970294;28;8866;-80
2022/12/26 10:09:30;;;;;;;;;35.40;29.20;;;;;20.20;39.34;100082.41;4973046;28;8946;-79
2022/12/26 10:12:16;;;;;;;;;33.75;31.25;;;;;20.04;39.24;100083.81;4973356;28;8897;-79
2022/12/26 10:14:52;;;;;;;;;22.00;21.80;;;;;19.93;39.17;100088.56;5043130;28;8969;-79
2022/12/26 10:17:30;;;;;;;;;23.60;23.00;;;;;20.08;39.00;100071.34;5027960;28;8968;-80
2022/12/26 10:20:14;;;;;;;;;25.00;24.80;;;;;20.29;38.40;100069.81;5026320;28;8885;-80
2022/12/26 10:23:04;;;;;;;;;19.60;18.60;;;;;20.46;38.62;100078.06;4993342;28;8876;-79
2022/12/26 10:25:41;;;;;;;;;25.00;22.20;;;;;20.43;38.07;100070.19;5016621;28;9008;-80
2022/12/26 10:28:17;;;;;;;;;23.20;23.20;;;;;20.33;38.26;100068.78;4990613;28;9561;-81
2022/12/26 10:30:49;;;;;;;;;29.60;26.20;;;;;20.49;38.12;100069.13;5012184;28;8859;-81
2022/12/26 10:33:37;;;;;;;;;20.40;20.00;;;;;20.77;38.03;100058.50;4960960;28;8872;-81
2022/12/26 10:36:06;;;;;;;;;22.60;21.00;;;;;20.78;37.86;100054.97;5024881;28;8863;-78
2022/12/26 10:38:39;;;;;;;;;19.00;18.60;;;;;20.90;37.59;100057.16;5005700;28;8855;-80
2022/12/26 10:41:14;;;;;;;;;25.40;23.20;;;;;21.07;37.41;100045.97;4991622;28;8879;-80
2022/12/26 10:43:44;;;;;;;;;18.40;18.40;;;;;21.13;36.91;100036.94;5005221;28;8898;-80
2022/12/26 10:46:30;;;;;;;;;23.80;20.80;;;;;21.15;37.26;100040.38;5017448;28;8854;-79
2022/12/26 10:49:00;;;;;;;;;15.00;13.60;;;;;21.20;36.84;100041.09;4991762;28;8840;-80
2022/12/26 10:51:29;;;;;;;;;16.40;15.40;;;;;21.21;36.81;100043.69;5010596;28;8913;-80
2022/12/26 10:53:58;;;;;;;;;16.80;16.00;;;;;21.35;36.62;100043.19;4959061;28;8893;-80
2022/12/26 10:56:28;;;;;;;;;16.40;13.80;;;;;21.48;36.39;100048.06;4997884;28;9898;-79
2022/12/26 10:59:03;;;;;;;;;16.80;14.60;;;;;21.67;36.16;100037.63;4993713;28;8882;-80
2022/12/26 11:01:35;;;;;;;;;17.40;17.40;;;;;21.78;35.93;100041.59;4995400;28;8878;-80
2022/12/26 11:04:14;;;;;;;;;19.00;18.80;;;;;21.85;35.84;100036.03;5010128;28;8855;-81
2022/12/26 11:06:52;;;;;;;;;24.60;22.20;;;;;21.90;35.46;100032.28;5026571;28;8908;-81
2022/12/26 11:09:38;;;;;;;;;24.00;24.00;;;;;21.98;35.38;100031.97;5011818;28;8917;-82
2022/12/26 11:12:19;;;;;;;;;25.60;24.40;;;;;22.04;35.65;100029.09;5011935;28;8953;-81
2022/12/26 11:14:49;;;;;;;;;30.20;27.40;;;;;22.03;35.71;100032.66;4994308;28;8871;-80
2022/12/26 11:17:26;;;;;;;;;21.60;21.20;;;;;22.06;35.42;100024.56;5027360;28;9006;-81
2022/12/26 11:20:23;;;;;;;;;25.40;23.20;;;;;22.19;35.54;100030.22;5011811;28;8852;-81
2022/12/26 11:22:53;;;;;;;;;43.50;36.50;;;;;21.74;36.32;100032.03;5027668;28;8996;-81
2022/12/26 11:25:24;;;;;;;;;69.67;57.33;;;;;21.89;36.60;100033.22;5011865;28;9010;-81
2022/12/26 11:27:54;;;;;;;;;79.50;76.00;;;;;21.87;37.16;100032.41;5046354;28;9215;-82
2022/12/26 11:30:28;;;;;;;;;79.00;70.25;;;;;21.80;37.57;100029.13;5008286;28;10653;-80
2022/12/26 11:33:18;;;;;;;;;90.25;84.75;;;;;21.89;37.52;100027.91;5014661;28;10893;-81
2022/12/26 11:35:54;;;;;;;;;85.50;80.50;;;;;21.71;37.54;100015.34;5026738;28;10890;-81
2022/12/26 11:41:34;;;;;;;;;91.75;84.25;;;;;21.69;37.49;100006.56;4969092;28;11746;-80
2022/12/26 11:44:12;;;;;;;;;84.75;79.00;;;;;21.74;37.66;100001.97;4986997;28;10897;-81
2022/12/26 11:46:45;;;;;;;;;79.50;72.50;;;;;21.77;37.49;100001.81;4975885;28;10664;-81
2022/12/26 11:49:20;;;;;;;;;77.25;69.25;;;;;21.78;37.26;100012.38;4980625;28;10360;-83
2022/12/26 11:51:51;;;;;;;;;78.00;65.00;;;;;21.67;37.49;100009.28;4969538;28;10859;-81
2022/12/26 11:54:36;;;;;;;;;80.25;71.75;;;;;21.65;38.11;100005.81;4968406;28;10416;-79
2022/12/26 11:57:28;;;;;;;;;79.75;71.25;;;;;21.83;37.66;100000.72;4987191;28;10507;-81
2022/12/26 12:00:15;;;;;;;;;81.75;75.25;;;;;21.88;37.58;99999.59;4888735;29;10281;-81
2022/12/26 12:02:44;;;;;;;;;75.00;64.75;;;;;21.73;37.26;99994.91;4929772;29;10112;-82
2022/12/26 12:05:16;;;;;;;;;75.50;65.25;;;;;21.75;37.72;100006.31;4911800;29;10107;-80
2022/12/26 12:08:14;;;;;;;;;68.75;55.00;;;;;21.83;37.18;99998.06;4915178;29;9996;-80
2022/12/26 12:10:59;;;;;;;;;74.50;62.00;;;;;21.76;37.20;100003.63;4929075;29;9809;-82
2022/12/26 12:13:42;;;;;;;;;75.25;65.25;;;;;21.75;37.43;99990.41;4895941;29;9799;-81
2022/12/26 12:16:24;;;;;;;;;73.25;59.25;;;;;21.77;37.43;99999.16;4913251;29;9760;-80
2022/12/26 12:19:01;;;;;;;;;70.67;56.67;;;;;21.76;37.48;100003.63;4947693;28;9686;-81
2022/12/26 12:21:37;;;;;;;;;69.00;55.00;;;;;21.69;37.53;100007.44;4954174;28;9319;-80
2022/12/26 12:24:27;;;;;;;;;66.00;52.67;;;;;21.84;37.69;100005.97;4967662;28;9471;-81
2022/12/26 12:27:05;;;;;;;;;71.33;58.33;;;;;21.80;37.87;100001.72;4966935;28;9112;-81
2022/12/26 12:29:48;;;;;;;;;71.33;58.67;;;;;21.89;37.82;100009.31;4919673;28;9533;-83
2022/12/26 12:32:22;;;;;;;;;65.00;52.00;;;;;21.72;37.84;100009.97;4967489;28;9358;-74
2022/12/26 12:35:15;;;;;;;;;56.00;46.00;;;;;21.73;37.92;100010.84;4966468;28;9949;-73
2022/12/26 12:37:59;;;;;;;;;57.50;47.00;;;;;21.62;38.01;100008.59;5010276;28;8994;-72
2022/12/26 12:40:39;;;;;;;;;58.25;46.50;;;;;21.53;38.27;100011.59;5028351;28;8868;-71
2022/12/26 12:43:17;;;;;;;;;57.00;45.50;;;;;21.56;38.25;100007.03;5026941;28;9018;-73
2022/12/26 12:45:56;;;;;;;;;60.50;48.00;;;;;21.58;38.18;100002.53;5026526;28;8922;-73
2022/12/26 12:48:46;;;;;;;;;58.75;48.75;;;;;21.55;38.16;99999.13;5021225;28;8854;-72
2022/12/26 12:51:23;;;;;;;;;54.75;46.00;;;;;21.42;38.36;99996.06;5024669;28;8867;-78
2022/12/26 12:54:19;;;;;;;;;58.50;48.25;;;;;21.36;38.79;99994.50;5043992;28;8879;-78
2022/12/26 12:57:01;;;;;;;;;58.50;48.50;;;;;21.29;38.82;99990.34;5012980;28;9032;-80
2022/12/26 12:59:38;;;;;;;;;60.25;49.75;;;;;21.29;38.89;99994.81;5007364;28;8871;-78
2022/12/26 13:02:15;;;;;;;;;56.25;46.75;;;;;21.09;39.31;100001.69;5028378;28;8922;-80
2022/12/26 13:04:54;;;;;;;;;51.25;43.00;;;;;21.09;39.16;99992.88;5026495;28;8860;-81
2022/12/26 13:07:29;;;;;;;;;63.75;51.75;;;;;21.07;39.52;99998.22;5042915;28;8965;-83
2022/12/26 13:10:01;;;;;;;;;63.50;49.25;;;;;21.14;39.38;99998.88;5043269;28;8918;-81
2022/12/26 13:12:37;;;;;;;;;61.75;48.25;;;;;21.07;39.58;99997.38;5026537;28;8856;-82
2022/12/26 13:15:14;;;;;;;;;58.50;47.75;;;;;20.96;39.84;100000.41;5009569;28;8883;-81
2022/12/26 13:17:49;;;;;;;;;58.75;48.25;;;;;20.96;39.49;99996.00;5026438;28;8853;-83
2022/12/26 13:20:22;;;;;;;;;63.25;48.00;;;;;20.86;39.45;99994.56;5043113;28;8868;-82
2022/12/26 13:25:46;;;;;;;;;57.25;46.00;;;;;20.63;40.13;99998.91;5042594;28;8910;-82
2022/12/26 13:28:21;;;;;;;;;60.50;48.00;;;;;20.78;39.96;99994.84;4997390;28;8887;-80
2022/12/26 13:30:53;;;;;;;;;59.00;48.50;;;;;20.87;39.78;100009.56;5026138;28;9700;-81
2022/12/26 13:33:22;;;;;;;;;54.00;45.50;;;;;20.82;39.44;100007.06;5025808;28;8972;-82
2022/12/26 13:35:55;;;;;;;;;51.50;43.00;;;;;20.82;39.40;100009.72;5018540;28;8984;-82
2022/12/26 13:38:46;;;;;;;;;56.00;46.25;;;;;20.86;39.41;100001.66;5014659;28;8862;-82
2022/12/26 13:44:26;;;;;;;;;54.00;45.75;;;;;20.96;39.49;99997.75;5043028;28;8903;-81
2022/12/26 13:46:56;;;;;;;;;55.75;45.75;;;;;20.57;39.94;100001.72;5018330;28;8869;-79
2022/12/26 13:49:28;;;;;;;;;55.00;45.75;;;;;20.50;40.30;99994.91;5008998;28;8951;-80
2022/12/26 13:52:18;;;;;;;;;52.50;44.75;;;;;20.52;40.33;99987.78;5010120;28;8863;-82
2022/12/26 13:55:19;;;;;;;;;47.25;39.75;;;;;20.59;40.24;99989.28;5059520;28;8901;-80
2022/12/26 13:58:11;;;;;;;;;55.75;46.00;;;;;20.64;40.25;99989.16;5010355;28;8867;-78
2022/12/26 14:00:45;;;;;;;;;55.50;45.00;;;;;20.56;40.45;100005.28;5023004;28;8889;-82
2022/12/26 14:03:37;;;;;;;;;52.25;43.75;;;;;20.56;40.55;99997.34;5005076;28;8860;-80
2022/12/26 14:06:41;;;;;;;;;54.75;45.25;;;;;20.61;40.55;100008.69;5043106;28;8878;-80